Time;durP1;ratioP1;P1;durP2;ratioP2;P2;SDS_P1;SDS_P2;PMS_P1;PMS_P2;Temp;Humidity;BMP_temperature;BMP_pressure;BME280_temperature;BME280_humidity;BME280_pressure;Samples;Min_cycle;Max_cycle;Signal;HPM_P1;HPM_P2
2022/12/09 00:01:03;;;;;;;16.92;4.20;;;;;;;17.06;100.00;101458.88;2096524;28;20101;-76
2022/12/09 00:02:26;;;;;;;13.50;4.15;;;;;;;17.04;100.00;101468.66;2077701;28;20059;-76
2022/12/09 00:03:49;;;;;;;20.45;4.75;;;;;;;17.03;100.00;101464.19;2085475;28;20094;-75
2022/12/09 00:05:11;;;;;;;8.98;3.63;;;;;;;17.02;100.00;101462.41;2085420;28;20053;-76
2022/12/09 00:06:33;;;;;;;14.00;4.30;;;;;;;16.99;100.00;101473.09;2085333;28;20056;-76
2022/12/09 00:07:55;;;;;;;11.82;3.80;;;;;;;16.97;100.00;101475.75;2082844;28;20045;-75
2022/12/09 00:09:17;;;;;;;12.63;4.07;;;;;;;16.96;100.00;101471.31;2077237;28;20037;-75
2022/12/09 00:10:43;;;;;;;15.25;4.32;;;;;;;16.96;100.00;101475.75;2089815;28;20094;-76
2022/12/09 00:12:06;;;;;;;12.63;4.00;;;;;;;16.93;100.00;101470.44;2085849;28;20048;-75
2022/12/09 00:13:29;;;;;;;14.10;4.95;;;;;;;16.92;100.00;101473.97;2085610;28;20053;-75
2022/12/09 00:14:51;;;;;;;16.77;3.95;;;;;;;16.91;100.00;101474.88;2077487;28;20069;-75
2022/12/09 00:16:15;;;;;;;9.73;3.88;;;;;;;16.90;100.00;101475.75;2077030;28;20079;-76
2022/12/09 00:17:37;;;;;;;14.82;4.47;;;;;;;16.87;100.00;101473.09;2079026;28;20044;-76
2022/12/09 00:18:58;;;;;;;13.48;3.97;;;;;;;16.87;100.00;101478.44;2090099;28;20551;-76
2022/12/09 00:20:21;;;;;;;15.15;3.95;;;;;;;16.86;100.00;101472.19;2079822;28;20503;-76
2022/12/09 00:21:43;;;;;;;18.45;4.90;;;;;;;16.87;100.00;101473.09;2091351;28;20048;-75
2022/12/09 00:23:06;;;;;;;15.52;4.63;;;;;;;16.87;100.00;101470.44;2085428;28;20078;-76
2022/12/09 00:24:28;;;;;;;13.57;4.43;;;;;;;16.88;100.00;101475.75;2091293;28;20048;-76
2022/12/09 00:25:51;;;;;;;11.45;3.70;;;;;;;16.89;100.00;101474.84;2093054;28;20490;-76
2022/12/09 00:27:13;;;;;;;14.15;4.43;;;;;;;16.86;100.00;101477.53;2085557;28;20391;-75
2022/12/09 00:28:35;;;;;;;13.45;4.40;;;;;;;16.85;100.00;101472.19;2082493;28;20481;-76
2022/12/09 00:29:57;;;;;;;13.32;4.15;;;;;;;16.82;100.00;101475.72;2091155;28;20106;-77
2022/12/09 00:31:20;;;;;;;14.73;4.60;;;;;;;16.81;100.00;101470.38;2085362;28;20473;-77
2022/12/09 00:32:43;;;;;;;13.82;4.72;;;;;;;16.81;100.00;101465.06;2090720;28;20143;-76
2022/12/09 00:34:09;;;;;;;9.20;3.67;;;;;;;16.83;100.00;101455.28;2084795;28;20115;-75
2022/12/09 00:35:33;;;;;;;13.70;4.13;;;;;;;16.85;100.00;101469.53;2082815;28;20388;-76
2022/12/09 00:36:55;;;;;;;20.38;4.28;;;;;;;16.85;100.00;101464.19;2090958;28;20048;-77
2022/12/09 00:38:17;;;;;;;12.50;4.65;;;;;;;16.86;100.00;101463.31;2096511;28;20059;-76
2022/12/09 00:39:39;;;;;;;11.02;3.90;;;;;;;16.85;100.00;101465.09;2085421;28;20053;-76
2022/12/09 00:41:03;;;;;;;12.82;3.83;;;;;;;16.86;100.00;101471.31;2091083;28;20056;-76
2022/12/09 00:42:25;;;;;;;19.52;5.00;;;;;;;16.85;100.00;101470.41;2093454;28;20044;-76
2022/12/09 00:43:47;;;;;;;19.10;4.95;;;;;;;16.83;100.00;101471.28;2083922;28;20410;-76
2022/12/09 00:45:11;;;;;;;21.13;5.20;;;;;;;16.79;100.00;101474.84;2077133;28;20164;-77
2022/12/09 00:46:32;;;;;;;17.50;4.13;;;;;;;16.77;100.00;101477.50;2077706;28;20502;-77
2022/12/09 00:47:54;;;;;;;18.55;4.85;;;;;;;16.77;100.00;101477.50;2091490;28;20109;-77
2022/12/09 00:49:17;;;;;;;19.30;4.70;;;;;;;16.80;100.00;101480.19;2093679;28;20041;-76
2022/12/09 00:50:38;;;;;;;21.23;4.68;;;;;;;16.79;100.00;101474.84;2096511;28;20032;-77
2022/12/09 00:52:00;;;;;;;23.92;5.28;;;;;;;16.80;100.00;101479.31;2094517;28;20102;-76
2022/12/09 00:53:22;;;;;;;22.83;5.30;;;;;;;16.80;100.00;101477.53;2085875;28;20049;-76
2022/12/09 00:54:44;;;;;;;15.93;4.78;;;;;;;16.77;100.00;101476.63;2084522;28;20057;-76
2022/12/09 00:56:07;;;;;;;20.88;4.97;;;;;;;16.71;100.00;101459.72;2094601;28;20102;-76
2022/12/09 00:57:30;;;;;;;24.67;5.75;;;;;;;16.63;100.00;101463.25;2089889;28;20618;-77
2022/12/09 00:58:52;;;;;;;14.38;4.82;;;;;;;16.59;100.00;101461.44;2094234;28;20052;-77
2022/12/09 01:00:15;;;;;;;20.35;4.28;;;;;;;16.56;100.00;101459.66;2091241;28;20056;-76
2022/12/09 01:01:37;;;;;;;21.45;4.80;;;;;;;16.55;100.00;101455.19;2094488;28;20064;-76
2022/12/09 01:02:58;;;;;;;14.45;4.22;;;;;;;16.57;100.00;101460.53;2081247;28;20064;-76
2022/12/09 01:04:21;;;;;;;17.10;4.90;;;;;;;16.58;100.00;101460.56;2083093;28;20040;-77
2022/12/09 01:05:44;;;;;;;18.70;4.00;;;;;;;16.57;100.00;101466.75;2098206;28;20468;-76
2022/12/09 01:07:06;;;;;;;15.75;5.10;;;;;;;16.60;100.00;101464.16;2097942;28;20094;-76
2022/12/09 01:08:29;;;;;;;19.85;4.80;;;;;;;16.61;100.00;101462.34;2095111;28;20055;-76
2022/12/09 01:09:50;;;;;;;15.07;4.30;;;;;;;16.62;100.00;101474.81;2086655;28;20548;-77
2022/12/09 01:11:18;;;;;;;18.25;4.60;;;;;;;16.60;100.00;101469.50;2092202;28;20044;-76
2022/12/09 01:12:43;;;;;;;16.55;4.50;;;;;;;16.58;100.00;101473.00;2093347;28;20036;-77
2022/12/09 01:14:06;;;;;;;16.52;5.35;;;;;;;16.55;100.00;101463.19;2091102;28;20048;-76
2022/12/09 01:15:29;;;;;;;16.67;5.53;;;;;;;16.54;100.00;101463.22;2086024;28;20041;-76
2022/12/09 01:16:51;;;;;;;12.57;6.35;;;;;;;16.51;100.00;101458.75;2094138;28;20062;-75
2022/12/09 01:18:12;;;;;;;17.63;5.63;;;;;;;16.51;100.00;101455.19;2092863;28;20098;-77
2022/12/09 01:19:35;;;;;;;17.63;5.45;;;;;;;16.48;100.00;101464.06;2086768;28;20045;-75
2022/12/09 01:20:57;;;;;;;14.88;5.30;;;;;;;16.47;100.00;101453.44;2084005;28;20049;-77
2022/12/09 01:22:20;;;;;;;14.90;4.28;;;;;;;16.47;100.00;101466.75;2093416;28;20051;-76
2022/12/09 01:23:41;;;;;;;16.05;4.90;;;;;;;16.47;100.00;101467.66;2086868;28;20037;-76
2022/12/09 01:25:04;;;;;;;18.45;5.60;;;;;;;16.42;100.00;101463.16;2084065;28;20063;-76
2022/12/09 01:26:27;;;;;;;15.85;5.07;;;;;;;16.33;100.00;101478.25;2094060;28;20040;-76
2022/12/09 01:27:50;;;;;;;18.15;5.88;;;;;;;16.24;100.00;101464.91;2090193;28;20142;-76
2022/12/09 01:29:13;;;;;;;16.70;5.30;;;;;;;16.14;100.00;101470.19;2095139;28;20048;-76
2022/12/09 01:30:36;;;;;;;18.13;5.60;;;;;;;16.06;100.00;101467.50;2089123;28;20068;-76
2022/12/09 01:31:59;;;;;;;17.65;4.97;;;;;;;16.04;100.00;101466.59;2081805;28;20045;-75
2022/12/09 01:33:21;;;;;;;16.90;5.57;;;;;;;15.98;100.00;101465.66;2083955;28;20056;-76
2022/12/09 01:34:44;;;;;;;21.58;6.03;;;;;;;15.92;100.00;101469.19;2078645;28;20045;-76
2022/12/09 01:36:07;;;;;;;22.30;5.05;;;;;;;15.90;100.00;101469.19;2081507;28;20482;-76
2022/12/09 01:37:31;;;;;;;18.92;6.22;;;;;;;15.85;100.00;101470.94;2083551;28;20144;-76
2022/12/09 01:38:54;;;;;;;14.82;5.57;;;;;;;15.85;100.00;101470.03;2092425;28;20593;-76
2022/12/09 01:40:17;;;;;;;18.30;5.38;;;;;;;15.84;100.00;101471.81;2086760;28;20547;-76
2022/12/09 01:41:41;;;;;;;13.23;5.15;;;;;;;15.85;100.00;101473.59;2086097;28;20810;-77
2022/12/09 01:43:02;;;;;;;15.38;5.15;;;;;;;15.84;100.00;101470.91;2087056;28;20081;-76
2022/12/09 01:44:26;;;;;;;16.15;6.07;;;;;;;15.81;100.00;101473.59;2086424;28;20053;-77
2022/12/09 01:45:48;;;;;;;19.60;5.63;;;;;;;15.76;100.00;101468.19;2089209;28;20041;-76
2022/12/09 01:47:22;;;;;;;21.10;6.13;;;;;;;15.77;100.00;101467.31;2093420;28;20044;-77
2022/12/09 01:48:47;;;;;;;31.20;10.68;;;;;;;15.82;100.00;101473.56;2087262;28;20053;-77
2022/12/09 01:50:08;;;;;;;19.25;5.57;;;;;;;15.93;100.00;101468.31;2084272;28;20148;-77
2022/12/09 01:51:32;;;;;;;18.92;5.20;;;;;;;15.97;100.00;101472.75;2086809;28;20179;-77
2022/12/09 01:52:55;;;;;;;17.40;6.15;;;;;;;15.94;100.00;101476.31;2094491;28;20080;-77
2022/12/09 01:54:20;;;;;;;30.23;5.85;;;;;;;15.89;100.00;101471.81;2082456;28;20095;-77
2022/12/09 01:55:42;;;;;;;19.58;5.18;;;;;;;15.86;100.00;101467.38;2091581;28;20048;-77
2022/12/09 01:57:06;;;;;;;22.08;5.38;;;;;;;15.82;100.00;101473.56;2088295;28;20119;-77
2022/12/09 01:58:28;;;;;;;20.80;6.07;;;;;;;15.78;100.00;101469.13;2082134;28;20078;-77
2022/12/09 01:59:51;;;;;;;19.52;5.35;;;;;;;15.72;100.00;101470.84;2078156;28;20049;-76
2022/12/09 02:01:14;;;;;;;18.08;5.15;;;;;;;15.67;100.00;101475.25;2079547;28;20081;-77
2022/12/09 02:02:38;;;;;;;22.30;5.47;;;;;;;15.64;100.00;101472.56;2078056;28;20149;-77
2022/12/09 02:04:01;;;;;;;15.73;5.97;;;;;;;15.64;100.00;101473.47;2078419;28;20141;-76
2022/12/09 02:05:23;;;;;;;25.70;7.00;;;;;;;15.62;100.00;101464.56;2084395;28;20101;-76
2022/12/09 02:06:52;;;;;;;17.27;5.97;;;;;;;15.60;100.00;101478.75;2084241;28;20144;-76
2022/12/09 02:08:18;;;;;;;18.42;7.10;;;;;;;15.55;100.00;101470.75;2086365;28;20517;-76
2022/12/09 02:09:45;;;;;;;26.42;8.70;;;;;;;15.48;100.00;101471.56;2079167;28;20050;-76
2022/12/09 02:11:13;;;;;;;28.98;14.55;;;;;;;15.44;100.00;101469.75;2085106;28;20041;-77
2022/12/09 02:12:46;;;;;;;;;;;;;;;15.37;100.00;101465.25;2094540;28;20052;-76
2022/12/09 02:14:15;;;;;;;31.98;14.50;;;;;;;15.42;100.00;101474.19;2093449;28;19924;-76
2022/12/09 02:15:43;;;;;;;19.88;7.50;;;;;;;15.42;100.00;101471.53;2087109;28;20136;-76
2022/12/09 02:17:24;;;;;;;20.65;6.20;;;;;;;15.37;100.00;101471.47;2085992;28;20045;-76
2022/12/09 02:18:57;;;;;;;20.98;6.30;;;;;;;15.35;100.00;101469.69;2088347;28;20581;-76
2022/12/09 02:20:27;;;;;;;17.13;5.40;;;;;;;15.34;100.00;101466.13;2087417;28;20402;-76
2022/12/09 02:21:57;;;;;;;20.45;6.13;;;;;;;15.32;100.00;101456.34;2082100;28;20565;-76
2022/12/09 02:23:24;;;;;;;21.20;7.55;;;;;;;15.35;100.00;101454.63;2091239;28;20097;-76
2022/12/09 02:24:56;;;;;;;19.40;7.90;;;;;;;15.35;100.00;101459.94;2086322;28;20072;-76
2022/12/09 02:26:25;;;;;;;20.73;6.38;;;;;;;15.37;100.00;101457.28;2094501;28;20048;-76
2022/12/09 02:27:54;;;;;;;18.02;7.10;;;;;;;15.34;100.00;101459.94;2094568;28;20502;-75
2022/12/09 02:29:39;;;;;;;25.85;12.63;;;;;;;15.30;100.00;101458.09;2087055;28;20104;-76
2022/12/09 02:31:18;;;;;;;23.17;12.90;;;;;;;15.25;100.00;101458.06;2088011;28;20072;-76
2022/12/09 02:33:02;;;;;;;25.95;10.40;;;;;;;15.20;100.00;101464.25;2088419;28;20048;-76
2022/12/09 02:34:28;;;;;;;19.85;9.38;;;;;;;15.15;100.00;101459.78;2081228;28;20147;-75
2022/12/09 02:35:58;;;;;;;21.42;7.82;;;;;;;15.13;100.00;101456.22;2085677;28;20116;-76
2022/12/09 02:37:27;;;;;;;17.17;6.70;;;;;;;15.14;100.00;101458.00;2082714;28;20048;-77
2022/12/09 02:38:53;;;;;;;18.40;7.00;;;;;;;15.12;100.00;101458.84;2086910;28;20507;-76
2022/12/09 02:40:21;;;;;;;13.27;6.72;;;;;;;15.08;100.00;101465.03;2089443;28;20140;-76
2022/12/09 02:41:49;;;;;;;21.45;8.93;;;;;;;15.02;100.00;101457.00;2085960;28;20053;-76
2022/12/09 02:43:13;;;;;;;23.75;8.77;;;;;;;15.00;100.00;101466.72;2085021;28;20088;-76
2022/12/09 02:44:38;;;;;;;20.70;6.57;;;;;;;15.01;100.00;101472.06;2093353;28;20040;-76
2022/12/09 02:46:03;;;;;;;14.30;6.05;;;;;;;15.03;100.00;101467.63;2086704;28;20136;-76
2022/12/09 02:47:29;;;;;;;27.33;6.97;;;;;;;15.04;100.00;101463.22;2090591;28;20037;-76
2022/12/09 02:48:54;;;;;;;20.50;7.00;;;;;;;15.01;100.00;101456.13;2086397;28;20061;-76
2022/12/09 02:50:22;;;;;;;28.15;12.50;;;;;;;15.02;100.00;101457.91;2082519;28;20075;-76
2022/12/09 02:51:45;;;;;;;36.30;17.73;;;;;;;15.03;100.00;101459.66;2080338;28;20073;-77
2022/12/09 02:53:12;;;;;;;29.50;14.20;;;;;;;15.01;100.00;101457.88;2075921;28;20131;-77
2022/12/09 02:54:38;;;;;;;34.25;13.88;;;;;;;15.02;100.00;101452.59;2081912;28;20061;-76
2022/12/09 02:56:00;;;;;;;25.33;12.02;;;;;;;15.05;100.00;101457.91;2083402;28;20056;-76
2022/12/09 02:57:30;;;;;;;32.45;15.93;;;;;;;15.08;100.00;101459.72;2084801;28;20375;-76
2022/12/09 02:58:52;;;;;;;43.88;19.17;;;;;;;15.06;100.00;101459.69;2092700;28;20052;-76
2022/12/09 03:00:19;;;;;;;18.75;8.80;;;;;;;15.06;100.00;101465.03;2085960;28;20131;-76
2022/12/09 03:01:47;;;;;;;23.55;9.20;;;;;;;15.08;100.00;101467.69;2099259;28;20051;-76
2022/12/09 03:03:15;;;;;;;16.70;6.82;;;;;;;15.05;100.00;101455.25;2096299;28;20139;-75
2022/12/09 03:04:39;;;;;;;19.92;7.45;;;;;;;14.99;100.00;101454.31;2094510;28;20037;-75
2022/12/09 03:06:08;;;;;;;24.00;8.48;;;;;;;14.94;100.00;101456.94;2087493;28;20136;-75
2022/12/09 03:07:38;;;;;;;19.08;7.93;;;;;;;14.85;100.00;101451.53;2088071;28;20478;-76
2022/12/09 03:09:07;;;;;;;21.05;8.90;;;;;;;14.87;100.00;101457.75;2088602;28;20556;-76
2022/12/09 03:10:36;;;;;;;27.48;12.48;;;;;;;14.95;100.00;101460.50;2095086;28;20032;-76
2022/12/09 03:12:06;;;;;;;28.15;12.55;;;;;;;15.01;100.00;101464.09;2086807;28;20045;-76
2022/12/09 03:13:41;;;;;;;19.65;9.75;;;;;;;15.07;100.00;101457.94;2087008;28;20453;-76
2022/12/09 03:15:05;;;;;;;23.55;10.63;;;;;;;15.15;100.00;101466.88;2095761;28;20105;-76
2022/12/09 03:16:33;;;;;;;22.20;7.90;;;;;;;15.21;100.00;101466.03;2085807;28;20131;-76
2022/12/09 03:17:58;;;;;;;16.33;6.55;;;;;;;15.17;100.00;101473.06;2084899;28;20138;-75
2022/12/09 03:19:26;;;;;;;17.05;6.47;;;;;;;15.09;100.00;101467.72;2092240;28;20098;-76
2022/12/09 03:20:50;;;;;;;23.20;7.38;;;;;;;15.06;100.00;101467.69;2094724;28;20045;-76
2022/12/09 03:22:17;;;;;;;20.25;7.95;;;;;;;15.13;100.00;101463.31;2086126;28;20819;-75
2022/12/09 03:23:43;;;;;;;16.80;7.55;;;;;;;15.18;100.00;101463.31;2083012;28;20053;-75
2022/12/09 03:25:12;;;;;;;20.20;7.68;;;;;;;15.17;100.00;101475.75;2100709;28;20520;-75
2022/12/09 03:26:38;;;;;;;19.77;7.25;;;;;;;15.15;100.00;101467.78;2096243;28;20118;-76
2022/12/09 03:28:04;;;;;;;17.38;6.18;;;;;;;15.14;100.00;101478.38;2094694;28;20114;-76
2022/12/09 03:29:29;;;;;;;19.83;6.60;;;;;;;15.11;100.00;101465.06;2094595;28;20512;-77
2022/12/09 03:30:52;;;;;;;19.80;6.32;;;;;;;15.10;100.00;101479.22;2094100;28;20497;-76
2022/12/09 03:32:17;;;;;;;19.85;6.90;;;;;;;15.06;100.00;101475.66;2094025;28;20456;-76
2022/12/09 03:33:42;;;;;;;21.13;7.60;;;;;;;15.02;100.00;101471.19;2094547;28;20052;-76
2022/12/09 03:35:08;;;;;;;21.65;10.18;;;;;;;15.08;100.00;101471.25;2096477;28;20048;-76
2022/12/09 03:36:36;;;;;;;27.23;13.10;;;;;;;15.27;100.00;101474.06;2102976;28;20050;-77
2022/12/09 03:38:04;;;;;;;28.25;15.15;;;;;;;15.42;100.00;101468.84;2088134;28;20529;-76
2022/12/09 03:39:31;;;;;;;32.50;23.70;;;;;;;15.54;100.00;101475.19;2080048;28;20033;-76
2022/12/09 03:40:59;;;;;;;28.50;18.52;;;;;;;15.58;100.00;101465.44;2084355;28;20094;-77
2022/12/09 03:42:26;;;;;;;27.50;11.98;;;;;;;15.62;100.00;101464.56;2078287;28;20029;-77
2022/12/09 03:43:54;;;;;;;19.60;9.95;;;;;;;15.66;100.00;101463.72;2088910;28;20040;-76
2022/12/09 03:45:19;;;;;;;17.60;8.93;;;;;;;15.64;100.00;101465.47;2094292;28;20037;-76
2022/12/09 03:46:42;;;;;;;18.30;9.60;;;;;;;15.61;100.00;101467.25;2094461;28;20472;-77
2022/12/09 03:48:05;;;;;;;19.08;7.85;;;;;;;15.60;100.00;101466.34;2085891;28;20048;-76
2022/12/09 03:49:27;;;;;;;15.25;7.80;;;;;;;15.57;100.00;101473.41;2075534;28;20049;-77
2022/12/09 03:50:55;;;;;;;22.45;7.78;;;;;;;15.51;100.00;101472.47;2090256;28;20417;-76
2022/12/09 03:52:23;;;;;;;18.67;7.80;;;;;;;15.48;100.00;101472.47;2092461;28;20045;-76
2022/12/09 03:53:50;;;;;;;22.63;8.05;;;;;;;15.45;100.00;101474.19;2094691;28;20174;-77
2022/12/09 03:55:19;;;;;;;34.47;17.85;;;;;;;15.42;100.00;101475.06;2094665;28;20053;-76
2022/12/09 03:56:44;;;;;;;36.03;16.40;;;;;;;15.46;100.00;101470.66;2079435;28;20426;-76
2022/12/09 03:58:09;;;;;;;24.60;10.10;;;;;;;15.49;100.00;101468.88;2079333;28;20057;-76
2022/12/09 03:59:35;;;;;;;23.20;9.10;;;;;;;15.47;100.00;101475.09;2092208;28;20036;-76
2022/12/09 04:00:58;;;;;;;21.48;11.15;;;;;;;15.42;100.00;101476.84;2083296;28;20494;-76
2022/12/09 04:02:20;;;;;;;22.52;10.48;;;;;;;15.38;100.00;101483.00;2084206;28;20102;-76
2022/12/09 04:03:43;;;;;;;25.48;10.45;;;;;;;15.33;100.00;101485.63;2092908;28;20048;-76
2022/12/09 04:05:07;;;;;;;26.00;10.43;;;;;;;15.30;100.00;101488.25;2093804;28;20665;-76
2022/12/09 04:06:28;;;;;;;22.75;9.68;;;;;;;15.27;100.00;101484.69;2085957;28;20510;-76
2022/12/09 04:07:51;;;;;;;23.65;10.15;;;;;;;15.19;100.00;101478.41;2089191;28;20614;-77
2022/12/09 04:09:15;;;;;;;22.42;9.75;;;;;;;15.14;100.00;101489.91;2075871;28;20243;-77
2022/12/09 04:10:36;;;;;;;23.27;9.68;;;;;;;15.15;100.00;101496.13;2082378;28;20041;-76
2022/12/09 04:11:59;;;;;;;22.70;8.40;;;;;;;15.14;100.00;101502.31;2085414;28;20083;-76
2022/12/09 04:13:20;;;;;;;25.98;9.02;;;;;;;15.12;100.00;101502.31;2089886;28;20098;-77
2022/12/09 04:14:43;;;;;;;19.90;8.50;;;;;;;15.06;100.00;101491.63;2092397;28;20094;-77
2022/12/09 04:16:04;;;;;;;17.75;9.05;;;;;;;15.03;100.00;101486.25;2080881;28;20037;-76
2022/12/09 04:17:27;;;;;;;24.50;14.30;;;;;;;15.06;100.00;101499.59;2090901;28;20041;-77
2022/12/09 04:18:48;;;;;;;21.08;10.70;;;;;;;15.06;100.00;101506.69;2085106;28;20095;-76
2022/12/09 04:20:12;;;;;;;22.13;10.13;;;;;;;15.06;100.00;101494.28;2084766;28;20397;-77
2022/12/09 04:21:33;;;;;;;21.63;11.18;;;;;;;15.11;100.00;101496.97;2090541;28;20056;-77
2022/12/09 04:22:57;;;;;;;35.40;25.88;;;;;;;15.25;100.00;101507.72;2080647;28;20105;-76
2022/12/09 04:24:20;;;;;;;32.28;22.67;;;;;;;15.34;100.00;101502.50;2075359;28;20480;-77
2022/12/09 04:25:42;;;;;;;23.02;10.00;;;;;;;15.35;100.00;101509.59;2091183;28;20084;-77
2022/12/09 04:27:05;;;;;;;23.92;9.40;;;;;;;15.30;100.00;101498.91;2092586;28;20040;-77
2022/12/09 04:28:26;;;;;;;20.92;10.75;;;;;;;15.23;100.00;101504.19;2085855;28;20145;-77
2022/12/09 04:29:49;;;;;;;24.08;15.32;;;;;;;15.18;100.00;101500.56;2082707;28;20053;-77
2022/12/09 04:31:12;;;;;;;27.05;15.32;;;;;;;15.15;100.00;101496.13;2082800;28;20037;-77
2022/12/09 04:32:35;;;;;;;23.23;13.85;;;;;;;15.14;100.00;101500.56;2094224;28;20049;-77
2022/12/09 04:33:57;;;;;;;23.98;13.48;;;;;;;15.14;100.00;101504.97;2096115;28;20056;-77
2022/12/09 04:35:19;;;;;;;22.50;13.75;;;;;;;15.13;100.00;101508.50;2085305;28;20037;-76
2022/12/09 04:36:42;;;;;;;28.50;16.83;;;;;;;15.14;100.00;101507.66;2091305;28;20056;-76
2022/12/09 04:38:04;;;;;;;33.47;23.65;;;;;;;15.13;100.00;101508.50;2085425;28;20129;-77
2022/12/09 04:39:27;;;;;;;36.40;22.33;;;;;;;15.10;100.00;101496.06;2085278;28;20052;-76
2022/12/09 04:40:49;;;;;;;29.27;17.98;;;;;;;15.15;100.00;101498.78;2093425;28;20097;-77
2022/12/09 04:42:12;;;;;;;29.55;15.63;;;;;;;15.20;100.00;101490.84;2087403;28;20593;-77
2022/12/09 04:43:35;;;;;;;29.23;17.95;;;;;;;15.22;100.00;101507.72;2085445;28;20086;-77
2022/12/09 04:44:57;;;;;;;30.00;17.65;;;;;;;15.19;100.00;101513.00;2085738;28;20053;-77
2022/12/09 04:46:20;;;;;;;30.80;18.33;;;;;;;15.19;100.00;101508.56;2077262;28;20444;-77
2022/12/09 04:47:42;;;;;;;43.10;25.30;;;;;;;15.48;100.00;101501.72;2082555;28;20090;-77
2022/12/09 04:49:03;;;;;;;44.00;26.15;;;;;;;15.83;100.00;101499.31;2085487;28;20259;-77
2022/12/09 04:50:26;;;;;;;37.45;19.77;;;;;;;15.97;100.00;101502.06;2091526;28;20530;-77
2022/12/09 04:51:47;;;;;;;35.05;19.52;;;;;;;15.95;100.00;101499.38;2077211;28;20037;-77
2022/12/09 04:53:10;;;;;;;49.00;24.90;;;;;;;15.97;100.00;101502.06;2089487;28;20051;-76
2022/12/09 04:54:34;;;;;;;43.22;24.85;;;;;;;15.95;100.00;101495.81;2092635;28;20441;-77
2022/12/09 04:55:59;;;;;;;58.88;32.30;;;;;;;15.91;100.00;101502.91;2089081;28;20041;-77
2022/12/09 04:57:21;;;;;;;45.25;26.05;;;;;;;15.89;100.00;101504.66;2079806;28;20104;-76
2022/12/09 04:58:43;;;;;;;31.17;17.08;;;;;;;15.89;100.00;101498.44;2082765;28;20045;-76
2022/12/09 05:00:08;;;;;;;26.80;17.02;;;;;;;15.87;100.00;101509.13;2091721;28;20048;-76
2022/12/09 05:01:29;;;;;;;30.58;18.50;;;;;;;15.85;100.00;101512.63;2085561;28;20090;-77
2022/12/09 05:02:51;;;;;;;37.03;22.60;;;;;;;15.82;100.00;101517.94;2091979;28;20122;-76
2022/12/09 05:04:14;;;;;;;32.60;21.00;;;;;;;15.82;100.00;101513.50;2093773;28;20074;-77
2022/12/09 05:05:40;;;;;;;33.63;20.42;;;;;;;15.79;100.00;101509.94;2086851;28;20144;-76
2022/12/09 05:07:03;;;;;;;29.77;20.58;;;;;;;15.80;100.00;101523.28;2094121;28;20040;-77
2022/12/09 05:08:24;;;;;;;41.70;18.42;;;;;;;15.80;100.00;101511.72;2091049;28;20463;-77
2022/12/09 05:09:48;;;;;;;32.58;19.13;;;;;;;15.82;100.00;101513.50;2085376;28;20469;-75
2022/12/09 05:11:11;;;;;;;35.42;18.00;;;;;;;15.81;100.00;101517.06;2092204;28;20101;-77
2022/12/09 05:12:34;;;;;;;29.70;18.52;;;;;;;15.85;100.00;101529.50;2092904;28;20044;-77
2022/12/09 05:13:56;;;;;;;31.58;20.33;;;;;;;15.89;100.00;101535.72;2092757;28;20044;-77
2022/12/09 05:15:19;;;;;;;38.45;24.70;;;;;;;15.95;100.00;101541.97;2093608;28;20040;-76
2022/12/09 05:16:41;;;;;;;34.80;22.35;;;;;;;15.99;100.00;101542.03;2101399;28;20109;-76
2022/12/09 05:18:02;;;;;;;52.70;34.78;;;;;;;16.03;100.00;101522.50;2089432;28;20064;-76
2022/12/09 05:19:25;;;;;;;62.78;39.90;;;;;;;16.06;100.00;101523.44;2074409;28;20554;-76
2022/12/09 05:20:46;;;;;;;50.40;35.03;;;;;;;16.11;100.00;101531.44;2089896;28;20048;-76
2022/12/09 05:22:08;;;;;;;56.67;42.45;;;;;;;16.16;100.00;101537.66;2082973;28;20164;-76
2022/12/09 05:23:31;;;;;;;43.83;38.25;;;;;;;16.21;100.00;101535.94;2087397;28;20048;-76
2022/12/09 05:24:55;;;;;;;48.67;36.33;;;;;;;16.23;100.00;101535.03;2085119;28;20131;-77
2022/12/09 05:26:18;;;;;;;44.63;34.25;;;;;;;16.28;100.00;101543.94;2088012;28;20043;-76
2022/12/09 05:27:40;;;;;;;51.45;41.20;;;;;;;16.33;100.00;101544.00;2085317;28;20049;-77
2022/12/09 05:29:02;;;;;;;47.00;37.72;;;;;;;16.35;100.00;101547.53;2081986;28;20543;-77
2022/12/09 05:30:24;;;;;;;41.60;30.20;;;;;;;16.36;100.00;101541.31;2084072;28;20053;-76
2022/12/09 05:31:46;;;;;;;37.33;26.02;;;;;;;16.34;100.00;101543.09;2090693;28;20083;-77
2022/12/09 05:33:09;;;;;;;36.75;23.02;;;;;;;16.35;100.00;101547.53;2085703;28;20411;-77
2022/12/09 05:34:31;;;;;;;33.03;19.65;;;;;;;16.36;100.00;101554.66;2094060;28;20525;-77
2022/12/09 05:35:53;;;;;;;32.50;23.23;;;;;;;16.36;100.00;101559.97;2094828;28;20082;-77
2022/12/09 05:37:16;;;;;;;37.78;23.48;;;;;;;16.38;100.00;101563.53;2089598;28;20056;-77
2022/12/09 05:38:38;;;;;;;33.30;22.63;;;;;;;16.38;100.00;101567.97;2095052;28;20101;-76
2022/12/09 05:40:02;;;;;;;37.72;22.45;;;;;;;16.34;100.00;101562.63;2093993;28;20048;-76
2022/12/09 05:41:24;;;;;;;32.60;19.45;;;;;;;16.34;100.00;101561.75;2092205;28;20044;-76
2022/12/09 05:42:46;;;;;;;33.22;20.48;;;;;;;16.33;100.00;101559.97;2094971;28;20394;-76
2022/12/09 05:44:09;;;;;;;33.33;21.40;;;;;;;16.35;100.00;101569.75;2085263;28;20086;-76
2022/12/09 05:45:32;;;;;;;31.70;23.48;;;;;;;16.35;100.00;101569.75;2076915;28;20049;-76
2022/12/09 05:46:53;;;;;;;36.00;23.67;;;;;;;16.39;100.00;101569.78;2092199;28;20089;-77
2022/12/09 05:48:15;;;;;;;34.55;26.35;;;;;;;16.42;100.00;101569.75;2094013;28;20079;-76
2022/12/09 05:49:38;;;;;;;46.47;32.05;;;;;;;16.45;100.00;101577.78;2083503;28;20498;-77
2022/12/09 05:51:03;;;;;;;29.85;18.58;;;;;;;16.53;100.00;101581.38;2087135;28;20132;-77
2022/12/09 05:52:25;;;;;;;30.95;19.85;;;;;;;16.63;100.00;101580.56;2090506;28;20095;-77
2022/12/09 05:53:48;;;;;;;27.98;16.08;;;;;;;16.67;100.00;101577.91;2089531;28;20048;-76
2022/12/09 05:55:12;;;;;;;27.92;14.75;;;;;;;16.70;100.00;101580.59;2078230;28;20053;-76
2022/12/09 05:56:34;;;;;;;24.00;12.82;;;;;;;16.74;100.00;101578.81;2084504;28;20063;-77
2022/12/09 05:57:57;;;;;;;19.73;11.75;;;;;;;16.78;100.00;101571.75;2082457;28;20041;-77
2022/12/09 05:59:19;;;;;;;34.80;12.73;;;;;;;16.82;100.00;101560.19;2087288;28;20052;-77
2022/12/09 06:00:40;;;;;;;24.20;12.30;;;;;;;16.87;100.00;101551.28;2089100;28;20057;-77
2022/12/09 06:02:03;;;;;;;19.13;13.13;;;;;;;16.89;100.00;101556.66;2097045;28;20048;-77
2022/12/09 06:03:24;;;;;;;26.38;15.48;;;;;;;16.90;100.00;101566.44;2097252;28;20048;-77
2022/12/09 06:04:47;;;;;;;33.10;21.70;;;;;;;16.91;100.00;101577.13;2105710;28;20052;-77
2022/12/09 06:06:11;;;;;;;32.58;20.20;;;;;;;16.93;100.00;101563.78;2086332;28;20122;-76
2022/12/09 06:07:34;;;;;;;34.58;23.45;;;;;;;16.96;100.00;101567.34;2086677;28;20541;-77
2022/12/09 06:08:58;;;;;;;33.80;23.30;;;;;;;16.98;100.00;101570.91;2094934;28;20052;-77
2022/12/09 06:10:22;;;;;;;42.08;26.50;;;;;;;16.99;100.00;101561.13;2094998;28;20049;-77
2022/12/09 06:11:45;;;;;;;34.70;26.23;;;;;;;17.00;100.00;101560.25;2094597;28;20448;-77
2022/12/09 06:13:06;;;;;;;37.78;30.90;;;;;;;17.02;100.00;101553.13;2094906;28;20407;-76
2022/12/09 06:14:29;;;;;;;33.05;24.83;;;;;;;17.04;100.00;101551.34;2086475;28;20036;-76
2022/12/09 06:15:51;;;;;;;22.83;14.98;;;;;;;17.10;100.00;101556.69;2090894;28;20056;-77
2022/12/09 06:17:13;;;;;;;24.15;13.90;;;;;;;17.19;100.00;101548.72;2094758;28;20049;-77
2022/12/09 06:18:36;;;;;;;25.73;13.60;;;;;;;17.24;100.00;101549.59;2086387;28;20169;-77
2022/12/09 06:19:58;;;;;;;29.98;14.95;;;;;;;17.28;100.00;101556.72;2094691;28;20401;-77
2022/12/09 06:21:21;;;;;;;28.70;16.08;;;;;;;17.32;100.00;101561.19;2093454;28;20049;-76